Time;durP1;ratioP1;P1;durP2;ratioP2;P2;SDS_P1;SDS_P2;PMS_P1;PMS_P2;Temp;Humidity;BMP_temperature;BMP_pressure;BME280_temperature;BME280_humidity;BME280_pressure;Samples;Min_cycle;Max_cycle;Signal;HPM_P1;HPM_P2
2022/11/22 00:01:55;;;;;;;28.80;17.95;;;-2.00;1.00;;;;;;5075854;28;20232;-81
2022/11/22 00:04:27;;;;;;;30.67;18.40;;;-2.00;1.00;;;;;;5078097;28;20293;-80
2022/11/22 00:06:56;;;;;;;30.80;18.92;;;-2.00;1.00;;;;;;5095616;28;20248;-81
2022/11/22 00:09:28;;;;;;;28.80;19.10;;;-2.00;1.00;;;;;;5098118;28;20239;-81
2022/11/22 00:11:55;;;;;;;30.08;19.50;;;-1.90;1.00;;;;;;5124215;27;20236;-80
2022/11/22 00:14:33;;;;;;;31.55;20.02;;;-1.90;1.00;;;;;;5120394;27;20227;-79
2022/11/22 00:17:01;;;;;;;28.25;18.55;;;-1.80;1.00;;;;;;5110478;27;20246;-80
2022/11/22 00:19:30;;;;;;;29.25;19.65;;;-1.80;1.00;;;;;;5119985;27;20239;-82
2022/11/22 00:21:57;;;;;;;31.17;18.92;;;-1.70;1.00;;;;;;5123478;27;20235;-81
2022/11/22 00:24:31;;;;;;;28.80;18.48;;;-1.70;1.00;;;;;;5120942;27;20242;-82
2022/11/22 00:26:58;;;;;;;33.30;20.20;;;-1.80;1.00;;;;;;5112115;27;20380;-82
2022/11/22 00:29:29;;;;;;;29.27;19.00;;;-1.90;1.00;;;;;;5111432;27;20258;-81
2022/11/22 00:31:56;;;;;;;36.13;21.83;;;-1.90;1.00;;;;;;5120940;27;20245;-81
2022/11/22 00:34:29;;;;;;;33.78;20.00;;;-2.00;1.00;;;;;;5121148;27;20247;-81
2022/11/22 00:36:56;;;;;;;33.35;20.40;;;-1.90;1.00;;;;;;5117717;27;20279;-81
2022/11/22 00:39:27;;;;;;;31.88;19.83;;;-2.00;1.00;;;;;;5117206;27;20235;-82
2022/11/22 00:41:54;;;;;;;30.45;18.75;;;-2.00;1.00;;;;;;5112087;27;21100;-80
2022/11/22 00:44:21;;;;;;;33.03;20.50;;;-2.00;1.00;;;;;;5121407;27;20249;-79
2022/11/22 00:46:49;;;;;;;33.70;21.10;;;-2.10;1.00;;;;;;5121965;27;20231;-81
2022/11/22 00:49:16;;;;;;;34.63;19.63;;;-2.10;1.00;;;;;;5122245;27;20227;-81
2022/11/22 00:51:52;;;;;;;35.67;20.85;;;-2.00;1.00;;;;;;5114145;27;20910;-81
2022/11/22 00:54:21;;;;;;;30.45;19.83;;;-2.00;1.00;;;;;;5110849;27;20238;-82
2022/11/22 00:56:56;;;;;;;32.05;19.58;;;-2.00;1.00;;;;;;5124189;27;20230;-80
2022/11/22 00:59:34;;;;;;;32.40;19.05;;;-2.10;1.00;;;;;;5121023;27;21041;-80
2022/11/22 01:02:01;;;;;;;31.52;18.92;;;-2.00;1.00;;;;;;5123003;27;20316;-80
2022/11/22 01:04:29;;;;;;;35.03;21.23;;;-2.00;1.00;;;;;;5121422;27;20218;-81
2022/11/22 01:07:04;;;;;;;31.13;18.70;;;-2.00;1.00;;;;;;5120615;27;20231;-80
2022/11/22 01:09:32;;;;;;;32.28;21.02;;;-1.90;1.00;;;;;;5118111;27;20439;-83
2022/11/22 01:11:59;;;;;;;29.63;18.42;;;-1.90;1.00;;;;;;5115503;27;20280;-81
2022/11/22 01:14:26;;;;;;;33.75;22.63;;;-1.90;1.00;;;;;;5115905;27;20694;-80
2022/11/22 01:16:57;;;;;;;35.67;20.70;;;-1.90;1.00;;;;;;5120538;27;21874;-81
2022/11/22 01:19:24;;;;;;;33.25;20.13;;;-1.90;1.00;;;;;;5122444;27;21105;-81
2022/11/22 01:21:51;;;;;;;30.27;18.58;;;-2.00;1.00;;;;;;5113046;27;20317;-81
2022/11/22 01:24:21;;;;;;;34.13;20.50;;;-1.90;1.00;;;;;;5115147;27;20288;-81
2022/11/22 01:26:48;;;;;;;30.92;18.65;;;-1.90;1.00;;;;;;5120758;27;20269;-81
2022/11/22 01:29:31;;;;;;;28.92;18.35;;;-1.90;1.00;;;;;;5117564;27;20235;-81
2022/11/22 01:32:00;;;;;;;36.33;19.92;;;-1.90;1.00;;;;;;5098793;28;20236;-80
2022/11/22 01:34:32;;;;;;;32.10;20.27;;;-1.90;1.00;;;;;;5104443;28;20240;-83
2022/11/22 01:37:08;;;;;;;35.45;19.77;;;-2.00;1.00;;;;;;5093159;28;20270;-80
2022/11/22 01:39:40;;;;;;;30.17;19.02;;;-2.00;1.00;;;;;;5102692;28;20218;-78
2022/11/22 01:42:19;;;;;;;25.92;17.27;;;-2.00;1.00;;;;;;5102605;28;20239;-80
2022/11/22 01:44:48;;;;;;;32.08;19.75;;;-2.00;1.00;;;;;;5099676;28;20293;-81
2022/11/22 01:47:20;;;;;;;33.53;19.48;;;-2.00;1.00;;;;;;5093260;28;20262;-80
2022/11/22 01:49:52;;;;;;;38.88;20.88;;;-2.00;1.00;;;;;;5102802;28;20228;-80
2022/11/22 01:52:22;;;;;;;37.15;21.38;;;-2.00;1.00;;;;;;5080314;28;20239;-81
2022/11/22 01:54:55;;;;;;;31.40;18.65;;;-2.10;1.00;;;;;;5134759;22;20231;-96
2022/11/22 02:00:20;;;;;;;32.45;20.70;;;-2.00;1.00;;;;;;5118345;27;21065;-94
2022/11/22 02:06:01;;;;;;;33.65;19.92;;;-2.00;1.00;;;;;;5085320;28;20254;-94
2022/11/22 02:14:38;;;;;;;31.45;19.42;;;-1.90;1.00;;;;;;5111815;27;20215;-92
2022/11/22 02:20:09;;;;;;;31.75;19.33;;;-1.90;1.00;;;;;;5087701;27;20231;-95
2022/11/22 02:23:08;;;;;;;33.80;19.08;;;-1.90;1.00;;;;;;5094842;27;20218;-93
2022/11/22 02:26:01;;;;;;;33.25;19.90;;;-1.90;1.00;;;;;;5112057;27;20226;-89
2022/11/22 02:28:42;;;;;;;;;;;;;;;;;;;;;
2022/11/22 02:31:48;;;;;;;32.42;20.70;;;-1.90;1.00;;;;;;5095285;27;40093;-95
2022/11/22 02:34:29;;;;;;;31.23;18.88;;;-1.90;1.00;;;;;;5093394;27;20227;-92
2022/11/22 02:37:00;;;;;;;32.70;20.63;;;-1.90;1.00;;;;;;5098273;27;20231;-90
2022/11/22 02:39:31;;;;;;;36.80;19.30;;;-1.90;1.00;;;;;;5082604;27;20215;-89
2022/11/22 02:42:20;;;;;;;30.55;18.77;;;-1.80;1.00;;;;;;5121746;27;20227;-89
2022/11/22 02:44:51;;;;;;;31.80;18.73;;;-1.90;1.00;;;;;;5115923;27;20211;-90
2022/11/22 02:47:31;;;;;;;29.15;19.52;;;-1.90;1.00;;;;;;5098040;27;20210;-90
2022/11/22 02:52:52;;;;;;;32.97;19.65;;;-1.90;1.00;;;;;;5070028;28;20219;-92
2022/11/22 02:55:38;;;;;;;31.48;19.42;;;-1.90;1.00;;;;;;5092645;27;20239;-94
2022/11/22 02:58:18;;;;;;;33.70;20.48;;;-1.80;1.00;;;;;;5104578;27;20220;-91
2022/11/22 03:01:02;;;;;;;;;;;;;;;;;;;;;
2022/11/22 03:03:51;;;;;;;31.70;20.73;;;-1.80;1.00;;;;;;5116716;27;40687;-87
2022/11/22 03:06:22;;;;;;;31.50;19.73;;;-1.90;1.00;;;;;;5136842;27;20231;-90
2022/11/22 03:08:51;;;;;;;33.28;19.92;;;-1.90;1.00;;;;;;5112814;27;20212;-90
2022/11/22 03:11:22;;;;;;;29.38;18.70;;;-1.90;1.00;;;;;;5111647;27;20231;-92
2022/11/22 03:13:52;;;;;;;32.40;20.90;;;-1.80;1.00;;;;;;5118365;27;20250;-93
2022/11/22 03:22:42;;;;;;;30.55;19.13;;;-1.80;1.00;;;;;;5140991;27;20225;-92
2022/11/22 03:25:10;;;;;;;33.83;20.60;;;-1.80;1.00;;;;;;5128038;27;20227;-90
2022/11/22 03:30:59;;;;;;;31.98;19.63;;;-1.80;1.00;;;;;;5133101;27;20233;-95
2022/11/22 03:33:48;;;;;;;32.97;20.10;;;-1.80;1.00;;;;;;5104375;27;20223;-93
2022/11/22 03:36:31;;;;;;;33.05;21.52;;;-1.80;1.00;;;;;;5091048;27;20235;-93
2022/11/22 03:39:12;;;;;;;34.55;20.70;;;-1.80;1.00;;;;;;5113607;27;20306;-93
2022/11/22 03:41:41;;;;;;;34.38;19.98;;;-1.80;1.00;;;;;;5113888;27;20246;-90
2022/11/22 03:47:41;;;;;;;34.50;20.00;;;-1.80;1.00;;;;;;5150246;22;20521;-83
2022/11/22 03:50:09;;;;;;;34.35;20.17;;;-1.80;1.00;;;;;;5110757;27;20936;-82
2022/11/22 03:52:42;;;;;;;29.83;19.27;;;-1.80;1.00;;;;;;5121475;27;20243;-83
2022/11/22 03:55:10;;;;;;;37.47;20.40;;;-1.70;1.00;;;;;;5120188;27;20231;-81
2022/11/22 03:57:37;;;;;;;34.47;20.83;;;-1.70;1.00;;;;;;5109342;27;20254;-80
2022/11/22 04:00:05;;;;;;;30.38;19.40;;;-1.70;1.00;;;;;;5113958;27;20265;-81
2022/11/22 04:02:32;;;;;;;33.88;20.73;;;-1.80;1.00;;;;;;5107159;27;20235;-81
2022/11/22 04:05:02;;;;;;;36.30;21.10;;;-1.80;1.00;;;;;;5113247;27;20247;-82
2022/11/22 04:07:29;;;;;;;33.28;19.38;;;-1.70;1.00;;;;;;5103797;27;20240;-82
2022/11/22 04:10:05;;;;;;;34.42;19.85;;;-1.70;1.00;;;;;;5128150;27;20220;-81
2022/11/22 04:12:32;;;;;;;36.38;21.50;;;-1.70;1.00;;;;;;5131066;27;20230;-81
2022/11/22 04:15:08;;;;;;;39.60;21.70;;;-1.70;1.00;;;;;;5127334;27;20219;-83
2022/11/22 04:17:43;;;;;;;38.95;21.90;;;-1.70;1.00;;;;;;5125962;27;20230;-81
2022/11/22 04:23:01;;;;;;;40.90;21.67;;;-1.60;1.00;;;;;;5111396;27;20220;-82
2022/11/22 04:25:30;;;;;;;37.63;21.40;;;-1.60;1.00;;;;;;5115516;27;20221;-81
2022/11/22 04:28:01;;;;;;;39.00;22.58;;;-1.60;1.00;;;;;;5117364;27;21816;-82
2022/11/22 04:33:12;;;;;;;43.40;22.75;;;-1.40;1.00;;;;;;5113998;27;20281;-81
2022/11/22 04:35:45;;;;;;;41.85;22.60;;;-1.40;1.00;;;;;;5118518;27;20259;-80
2022/11/22 04:38:12;;;;;;;43.13;24.45;;;-1.50;1.00;;;;;;5113506;27;20239;-81
2022/11/22 04:40:40;;;;;;;46.22;23.95;;;-1.40;1.00;;;;;;5113167;27;20294;-80
2022/11/22 04:45:52;;;;;;;44.00;22.63;;;-1.40;1.00;;;;;;5114468;27;20232;-81
2022/11/22 04:48:20;;;;;;;40.55;23.08;;;-1.30;1.00;;;;;;5120732;27;20240;-80
2022/11/22 04:53:33;;;;;;;42.05;23.10;;;-1.30;1.00;;;;;;5110994;27;20237;-81
2022/11/22 04:56:01;;;;;;;48.88;25.90;;;-1.30;1.00;;;;;;5116123;27;20204;-79
2022/11/22 04:58:27;;;;;;;43.35;25.38;;;-1.20;1.00;;;;;;5103283;27;20241;-81
2022/11/22 05:01:06;;;;;;;43.05;24.33;;;-1.20;1.00;;;;;;5099422;28;20236;-80
2022/11/22 05:03:41;;;;;;;44.22;25.33;;;-1.10;1.00;;;;;;5101587;27;20317;-79
2022/11/22 05:06:16;;;;;;;38.30;22.70;;;-1.20;1.00;;;;;;5106903;27;20232;-81
2022/11/22 05:08:45;;;;;;;43.00;23.88;;;-1.10;1.00;;;;;;5119696;27;20246;-80
2022/11/22 05:11:13;;;;;;;41.80;24.70;;;-1.20;1.00;;;;;;5114560;27;20246;-79
2022/11/22 05:13:41;;;;;;;40.88;24.40;;;-1.20;1.00;;;;;;5118478;27;20243;-81
2022/11/22 05:16:11;;;;;;;41.50;24.02;;;-1.10;1.00;;;;;;5106259;27;20228;-80
2022/11/22 05:18:57;;;;;;;49.63;24.83;;;-1.10;1.00;;;;;;5106306;27;20232;-81
2022/11/22 05:21:32;;;;;;;46.90;24.15;;;-1.10;1.00;;;;;;5099558;28;20247;-82
2022/11/22 05:23:59;;;;;;;47.45;25.27;;;-1.20;1.00;;;;;;5118007;27;20231;-84
2022/11/22 05:26:28;;;;;;;39.88;23.33;;;-1.10;1.00;;;;;;5124439;27;20239;-82
2022/11/22 05:29:04;;;;;;;44.80;24.55;;;-1.20;1.00;;;;;;5109976;27;20237;-82
2022/11/22 05:31:42;;;;;;;41.70;24.13;;;-1.10;1.00;;;;;;5101105;27;20323;-82
2022/11/22 05:34:09;;;;;;;46.50;24.75;;;-1.10;1.00;;;;;;5102549;28;20240;-78
2022/11/22 05:36:43;;;;;;;41.63;23.35;;;-1.00;1.00;;;;;;5097296;28;20216;-84
2022/11/22 05:39:11;;;;;;;38.38;23.13;;;-0.90;1.00;;;;;;5110387;27;20265;-83
2022/11/22 05:41:54;;;;;;;42.67;24.55;;;-0.90;1.00;;;;;;5113493;27;20235;-84
2022/11/22 05:44:22;;;;;;;42.85;25.67;;;-1.00;1.00;;;;;;5113057;27;20228;-80
2022/11/22 05:46:49;;;;;;;45.20;25.80;;;-0.90;1.00;;;;;;5101022;27;20810;-80
2022/11/22 05:49:20;;;;;;;42.15;24.60;;;-0.90;1.00;;;;;;5106354;27;20234;-79
2022/11/22 05:51:49;;;;;;;45.53;22.67;;;-0.90;1.00;;;;;;5096280;28;20317;-79
2022/11/22 05:54:21;;;;;;;44.67;24.95;;;-0.80;1.00;;;;;;5093451;27;20347;-79
2022/11/22 05:56:48;;;;;;;39.33;23.80;;;-0.80;1.00;;;;;;5100975;27;20287;-79
2022/11/22 05:59:27;;;;;;;43.50;25.05;;;-0.80;1.00;;;;;;5098339;27;21163;-79
2022/11/22 06:02:04;;;;;;;43.40;24.42;;;-0.70;1.00;;;;;;5103835;27;20369;-78
2022/11/22 06:04:33;;;;;;;42.15;23.67;;;-0.80;1.00;;;;;;5091103;27;20241;-78
2022/11/22 06:07:01;;;;;;;40.65;24.05;;;-0.70;1.00;;;;;;5109347;27;20235;-79
2022/11/22 06:09:29;;;;;;;43.45;24.63;;;-0.70;1.00;;;;;;5117192;27;26073;-80
2022/11/22 06:12:04;;;;;;;43.22;24.77;;;-0.70;1.00;;;;;;5118479;27;20281;-82
2022/11/22 06:14:31;;;;;;;45.97;25.20;;;-0.70;1.00;;;;;;5120740;27;21113;-81
2022/11/22 06:17:00;;;;;;;41.22;22.52;;;-0.70;1.00;;;;;;5123234;27;20212;-82
2022/11/22 06:19:27;;;;;;;42.97;25.48;;;-0.60;1.00;;;;;;5115486;27;20316;-82
2022/11/22 06:21:54;;;;;;;44.30;24.40;;;-0.60;1.00;;;;;;5115206;27;20229;-81
2022/11/22 06:24:23;;;;;;;42.08;25.63;;;-0.60;1.00;;;;;;5105717;27;20249;-80
2022/11/22 06:26:51;;;;;;;36.78;21.52;;;-0.50;1.00;;;;;;5098309;27;20237;-81
2022/11/22 06:29:20;;;;;;;48.88;28.83;;;-0.40;1.00;;;;;;5093434;28;21253;-79
2022/11/22 06:31:50;;;;;;;41.88;24.38;;;-0.50;1.00;;;;;;5103291;27;20240;-79
2022/11/22 06:34:22;;;;;;;43.75;26.05;;;-0.50;1.00;;;;;;5115651;27;20230;-79
2022/11/22 06:36:49;;;;;;;41.63;24.05;;;-0.40;1.00;;;;;;5103826;27;20313;-78
2022/11/22 06:39:23;;;;;;;41.35;23.08;;;-0.50;1.00;;;;;;5101010;27;20230;-80
2022/11/22 06:41:51;;;;;;;44.28;25.08;;;-0.50;1.00;;;;;;5099492;28;20241;-79
2022/11/22 06:44:22;;;;;;;49.83;28.70;;;-0.50;1.00;;;;;;5095692;27;20240;-79
2022/11/22 06:46:49;;;;;;;43.65;25.13;;;-0.50;1.00;;;;;;5109112;27;20247;-79
2022/11/22 06:49:16;;;;;;;43.83;27.13;;;-0.50;1.00;;;;;;5116790;27;20286;-79
2022/11/22 06:51:43;;;;;;;52.10;28.75;;;-0.50;1.00;;;;;;5097983;27;20314;-79
2022/11/22 06:54:11;;;;;;;36.72;22.90;;;-0.40;1.00;;;;;;5106042;27;20235;-79
2022/11/22 06:56:45;;;;;;;40.67;25.20;;;-0.40;1.00;;;;;;5104576;28;20221;-79
2022/11/22 06:59:12;;;;;;;43.63;23.13;;;-0.50;1.00;;;;;;5099262;27;20290;-80
2022/11/22 07:01:43;;;;;;;40.47;23.33;;;-0.40;1.00;;;;;;5105751;28;20240;-80
2022/11/22 07:04:10;;;;;;;37.22;24.00;;;-0.40;1.00;;;;;;5107628;27;20290;-80
2022/11/22 07:06:42;;;;;;;38.22;21.95;;;-0.40;1.00;;;;;;5106372;27;20937;-78
2022/11/22 07:09:11;;;;;;;40.22;24.70;;;-0.30;1.00;;;;;;5106922;27;20268;-82
2022/11/22 07:11:40;;;;;;;38.60;24.40;;;-0.30;1.00;;;;;;5102112;27;20320;-82
2022/11/22 07:14:12;;;;;;;39.65;21.80;;;-0.30;1.00;;;;;;5109628;27;20241;-81
2022/11/22 07:16:39;;;;;;;43.10;23.33;;;-0.30;1.00;;;;;;5099208;27;20261;-80
2022/11/22 07:19:07;;;;;;;34.70;21.50;;;-0.30;1.00;;;;;;5100211;27;20475;-80
2022/11/22 07:21:35;;;;;;;38.35;22.27;;;-0.30;1.00;;;;;;5116706;27;20240;-80
2022/11/22 07:24:05;;;;;;;37.90;23.00;;;-0.30;1.00;;;;;;5101690;27;20238;-81
2022/11/22 07:26:32;;;;;;;38.65;23.40;;;-0.20;1.00;;;;;;5097542;28;20240;-79
2022/11/22 07:29:01;;;;;;;41.65;24.48;;;-0.10;1.00;;;;;;5099591;28;20244;-81
2022/11/22 07:31:28;;;;;;;39.67;24.70;;;-0.20;1.00;;;;;;5110648;27;20236;-80
2022/11/22 07:33:57;;;;;;;40.83;22.88;;;-0.40;1.00;;;;;;5109195;27;20237;-81
2022/11/22 07:36:27;;;;;;;41.70;22.65;;;-0.40;1.00;;;;;;5114390;27;20342;-81
2022/11/22 07:39:00;;;;;;;45.28;23.77;;;-0.20;1.00;;;;;;5113037;27;20315;-81
2022/11/22 07:41:27;;;;;;;38.45;23.58;;;-0.10;1.00;;;;;;5097847;28;20239;-80
2022/11/22 07:44:00;;;;;;;39.40;23.50;;;-0.10;1.00;;;;;;5117164;27;20242;-82
2022/11/22 07:46:31;;;;;;;36.88;21.80;;;0.00;1.00;;;;;;5101484;27;20237;-80
2022/11/22 07:49:02;;;;;;;41.45;25.90;;;0.00;1.00;;;;;;5107214;27;20221;-81
2022/11/22 07:51:30;;;;;;;36.22;21.75;;;0.10;1.00;;;;;;5102668;27;20244;-82
2022/11/22 07:54:06;;;;;;;36.33;22.15;;;0.00;1.00;;;;;;5098176;28;20260;-80
2022/11/22 07:56:37;;;;;;;42.17;24.00;;;-0.10;1.00;;;;;;5104958;27;20235;-81
2022/11/22 07:59:05;;;;;;;43.08;23.65;;;-0.10;1.00;;;;;;5109644;27;20231;-80
2022/11/22 08:01:33;;;;;;;45.80;25.55;;;0.00;1.00;;;;;;5117998;27;21004;-80
2022/11/22 08:04:01;;;;;;;38.83;23.45;;;0.00;1.00;;;;;;5122302;27;20233;-80
2022/11/22 08:06:28;;;;;;;38.42;22.02;;;0.10;1.00;;;;;;5108160;27;20232;-80
2022/11/22 08:08:57;;;;;;;38.20;22.48;;;0.10;1.00;;;;;;5097051;27;20288;-82
2022/11/22 08:11:24;;;;;;;35.72;21.40;;;0.10;1.00;;;;;;5097475;28;20709;-82
2022/11/22 08:13:51;;;;;;;40.25;23.42;;;0.20;1.00;;;;;;5102873;28;20347;-82
2022/11/22 08:16:21;;;;;;;41.08;22.88;;;0.20;1.00;;;;;;5104783;27;20228;-82
2022/11/22 08:18:50;;;;;;;38.35;23.05;;;0.30;1.00;;;;;;5113443;27;20264;-80
2022/11/22 08:21:21;;;;;;;41.45;23.50;;;0.10;1.00;;;;;;5096289;27;20236;-81
2022/11/22 08:23:50;;;;;;;40.92;23.35;;;0.10;1.00;;;;;;5096718;28;20358;-80
2022/11/22 08:26:21;;;;;;;36.65;22.63;;;0.00;1.00;;;;;;5097577;28;20251;-81
2022/11/22 08:28:48;;;;;;;39.97;22.92;;;0.10;1.00;;;;;;5097320;28;20736;-80
2022/11/22 08:31:23;;;;;;;36.33;22.80;;;0.10;1.00;;;;;;5108052;27;20247;-80
2022/11/22 08:33:53;;;;;;;36.83;21.58;;;0.20;1.00;;;;;;5100394;27;20406;-81
2022/11/22 08:36:21;;;;;;;43.72;24.73;;;0.20;1.00;;;;;;5107597;27;20223;-81
2022/11/22 08:38:48;;;;;;;49.97;26.58;;;0.10;1.00;;;;;;5107284;27;20782;-81
2022/11/22 08:44:21;;;;;;;40.05;23.23;;;0.20;1.00;;;;;;5129852;27;20232;-81
2022/11/22 08:46:48;;;;;;;42.63;25.60;;;0.30;1.00;;;;;;5103728;27;20249;-80
2022/11/22 08:49:18;;;;;;;41.15;23.27;;;0.40;1.00;;;;;;5108188;27;20238;-79
2022/11/22 08:51:50;;;;;;;40.70;24.40;;;0.40;1.00;;;;;;5103584;28;20237;-80
2022/11/22 08:54:17;;;;;;;40.50;24.35;;;0.30;1.00;;;;;;5098450;27;20234;-79
2022/11/22 08:56:52;;;;;;;46.30;25.60;;;0.20;1.00;;;;;;5112746;27;20228;-80
2022/11/22 08:59:19;;;;;;;44.03;25.30;;;0.30;1.00;;;;;;5130969;27;20236;-82
2022/11/22 09:01:57;;;;;;;45.95;25.25;;;0.30;1.00;;;;;;5114236;27;20257;-80
2022/11/22 09:04:28;;;;;;;47.17;28.05;;;0.30;1.00;;;;;;5105105;27;20225;-78
2022/11/22 09:06:59;;;;;;;44.78;25.42;;;0.30;1.00;;;;;;5112029;27;20319;-81
2022/11/22 09:09:33;;;;;;;43.15;24.08;;;0.40;1.00;;;;;;5115957;27;20259;-80
2022/11/22 09:12:00;;;;;;;45.65;26.23;;;0.60;1.00;;;;;;5117286;27;20827;-81
2022/11/22 09:14:31;;;;;;;43.80;26.00;;;0.70;1.00;;;;;;5111912;27;20234;-79
2022/11/22 09:16:58;;;;;;;43.33;24.17;;;0.70;1.00;;;;;;5129738;27;20263;-78
2022/11/22 09:19:27;;;;;;;41.40;23.42;;;0.70;1.00;;;;;;5111308;27;20271;-79
2022/11/22 09:21:55;;;;;;;48.28;30.00;;;0.70;1.00;;;;;;5106186;27;20337;-79
2022/11/22 09:24:22;;;;;;;44.30;25.33;;;0.70;1.00;;;;;;5095605;27;20336;-79
2022/11/22 09:26:49;;;;;;;46.70;26.42;;;0.70;1.00;;;;;;5091545;27;20252;-81
2022/11/22 09:29:16;;;;;;;45.85;27.60;;;0.80;1.00;;;;;;5096804;27;20250;-79
2022/11/22 09:31:44;;;;;;;44.25;26.05;;;0.80;1.00;;;;;;5096570;27;20233;-80
2022/11/22 09:34:11;;;;;;;42.72;24.48;;;0.90;1.00;;;;;;5109295;27;20264;-80
2022/11/22 09:36:40;;;;;;;47.55;24.45;;;0.90;1.00;;;;;;5101151;27;20221;-80
2022/11/22 09:39:15;;;;;;;44.88;25.13;;;0.80;1.00;;;;;;5096456;27;20234;-81
2022/11/22 09:42:11;;;;;;;46.38;25.25;;;0.80;1.00;;;;;;5099017;27;20228;-80
2022/11/22 09:44:59;;;;;;;43.97;24.58;;;0.70;1.00;;;;;;5104585;27;21065;-80
2022/11/22 09:47:40;;;;;;;49.83;27.25;;;0.70;1.00;;;;;;5097397;27;20233;-81
2022/11/22 09:50:18;;;;;;;44.75;25.45;;;0.80;1.00;;;;;;5115158;27;20246;-81
2022/11/22 09:52:59;;;;;;;48.15;26.30;;;1.00;1.00;;;;;;5105923;27;20235;-81
2022/11/22 09:55:36;;;;;;;43.88;24.92;;;1.10;1.00;;;;;;5098176;27;20256;-80
2022/11/22 09:58:17;;;;;;;41.45;26.35;;;1.00;1.00;;;;;;5100912;27;20336;-80
2022/11/22 10:00:44;;;;;;;44.38;26.17;;;1.00;1.00;;;;;;5101923;27;20240;-80
2022/11/22 10:03:22;;;;;;;48.22;27.65;;;1.00;1.00;;;;;;5109574;27;20234;-82
2022/11/22 10:05:56;;;;;;;48.67;26.95;;;1.00;1.00;;;;;;5104842;27;20261;-81
2022/11/22 10:08:37;;;;;;;46.20;24.58;;;1.00;1.00;;;;;;5086882;27;20230;-79
2022/11/22 10:11:13;;;;;;;42.75;26.20;;;1.10;1.00;;;;;;5095880;27;20240;-81
2022/11/22 10:13:50;;;;;;;42.28;24.35;;;1.20;1.00;;;;;;5106592;28;20663;-81
2022/11/22 10:16:23;;;;;;;50.33;27.00;;;1.20;1.00;;;;;;5103025;27;20237;-79
2022/11/22 10:18:56;;;;;;;40.72;23.42;;;1.30;1.00;;;;;;5104950;27;20221;-78
2022/11/22 10:21:24;;;;;;;43.80;26.08;;;1.40;1.00;;;;;;5111451;27;20230;-80
2022/11/22 10:23:56;;;;;;;44.83;25.60;;;1.40;1.00;;;;;;5112868;27;20282;-80
2022/11/22 10:26:31;;;;;;;48.58;26.08;;;1.40;1.00;;;;;;5100897;27;20241;-80
2022/11/22 10:29:19;;;;;;;43.10;26.67;;;1.30;1.00;;;;;;5089376;28;20238;-82
2022/11/22 10:32:03;;;;;;;49.50;26.48;;;1.20;1.00;;;;;;5100139;28;20242;-82
2022/11/22 10:34:48;;;;;;;45.92;25.60;;;1.30;1.00;;;;;;5101280;27;20243;-79
2022/11/22 10:37:33;;;;;;;43.88;25.27;;;1.30;1.00;;;;;;5093933;28;20303;-79
2022/11/22 10:40:15;;;;;;;47.15;26.13;;;1.40;1.00;;;;;;5111026;27;21041;-80
2022/11/22 10:43:11;;;;;;;46.95;25.98;;;1.40;1.00;;;;;;5111183;27;20311;-81
2022/11/22 10:45:43;;;;;;;49.38;25.08;;;1.50;1.00;;;;;;5081131;28;20229;-79
2022/11/22 10:48:22;;;;;;;50.50;29.27;;;1.50;1.00;;;;;;5081613;27;20268;-80
2022/11/22 10:51:03;;;;;;;41.90;26.48;;;1.50;1.00;;;;;;5101321;28;20241;-82
2022/11/22 10:53:44;;;;;;;46.50;25.67;;;1.60;1.00;;;;;;5091882;27;20241;-80
2022/11/22 10:56:20;;;;;;;45.35;25.23;;;1.70;1.00;;;;;;5112156;27;20225;-80
2022/11/22 10:59:11;;;;;;;46.75;26.58;;;1.80;1.00;;;;;;5101658;27;20318;-82
2022/11/22 11:01:48;;;;;;;47.00;25.90;;;1.70;1.00;;;;;;5108939;27;20259;-81
2022/11/22 11:04:17;;;;;;;41.42;27.10;;;1.70;1.00;;;;;;5097417;27;20246;-80
2022/11/22 11:06:51;;;;;;;54.05;27.95;;;1.80;1.00;;;;;;5110772;27;20242;-82
2022/11/22 11:09:22;;;;;;;48.47;26.25;;;1.90;1.00;;;;;;5090312;27;20284;-81
2022/11/22 11:11:54;;;;;;;48.50;27.52;;;2.00;1.00;;;;;;5093084;27;20235;-80
2022/11/22 11:14:32;;;;;;;49.08;27.52;;;2.10;1.00;;;;;;5104089;27;20275;-81
2022/11/22 11:17:01;;;;;;;46.33;27.25;;;2.10;1.00;;;;;;5095451;27;20249;-81
2022/11/22 11:19:37;;;;;;;43.95;25.38;;;2.20;1.00;;;;;;5091545;28;20234;-82
2022/11/22 11:22:18;;;;;;;48.85;29.05;;;2.10;1.00;;;;;;5105113;27;20945;-80
2022/11/22 11:24:45;;;;;;;53.90;30.45;;;2.10;1.00;;;;;;5094586;27;20235;-81
2022/11/22 11:27:16;;;;;;;53.17;30.17;;;2.10;1.00;;;;;;5091435;27;20220;-81
2022/11/22 11:29:51;;;;;;;47.25;28.55;;;2.20;1.00;;;;;;5107471;27;20260;-83
2022/11/22 11:32:20;;;;;;;41.80;24.85;;;2.10;1.00;;;;;;5118207;27;20242;-81
2022/11/22 11:34:57;;;;;;;46.22;27.38;;;2.10;1.00;;;;;;5095766;27;20262;-81
2022/11/22 11:37:32;;;;;;;47.72;27.48;;;2.20;1.00;;;;;;5092294;28;20292;-83
2022/11/22 11:40:07;;;;;;;47.25;27.48;;;2.30;1.00;;;;;;5091039;27;20245;-80
2022/11/22 11:42:40;;;;;;;45.90;25.10;;;2.30;1.00;;;;;;5103319;28;20222;-81
2022/11/22 11:45:28;;;;;;;44.17;24.98;;;2.30;1.00;;;;;;5096471;28;20252;-81
2022/11/22 11:48:00;;;;;;;50.83;25.95;;;2.30;1.00;;;;;;5099865;27;20261;-81
2022/11/22 11:50:29;;;;;;;48.97;27.35;;;2.30;1.00;;;;;;5119049;27;20241;-79
2022/11/22 11:53:03;;;;;;;41.42;23.38;;;2.30;1.00;;;;;;5121269;27;20327;-80
2022/11/22 11:55:31;;;;;;;48.75;27.45;;;2.40;1.00;;;;;;5118476;27;20987;-82
2022/11/22 11:58:21;;;;;;;45.47;26.15;;;2.60;1.00;;;;;;5112951;27;20365;-81
2022/11/22 12:00:48;;;;;;;46.35;27.65;;;2.60;1.00;;;;;;5100970;28;20265;-81
2022/11/22 12:03:22;;;;;;;49.00;25.23;;;2.50;1.00;;;;;;5096879;27;20241;-81
2022/11/22 12:06:13;;;;;;;47.33;26.45;;;2.50;1.00;;;;;;5113106;27;20236;-83
2022/11/22 12:08:42;;;;;;;38.22;24.05;;;2.60;1.00;;;;;;5095409;27;20274;-85
2022/11/22 12:11:17;;;;;;;43.78;25.20;;;2.60;1.00;;;;;;5103589;27;20263;-81
2022/11/22 12:13:52;;;;;;;43.30;24.35;;;2.70;1.00;;;;;;5115873;27;20227;-82
2022/11/22 12:16:22;;;;;;;44.45;26.35;;;2.80;1.00;;;;;;5089050;27;20237;-80
2022/11/22 12:19:06;;;;;;;41.78;24.67;;;2.80;1.00;;;;;;5097127;27;20244;-82
2022/11/22 12:21:42;;;;;;;45.30;25.65;;;2.80;1.00;;;;;;5120046;27;20269;-81
2022/11/22 12:24:15;;;;;;;52.88;28.17;;;2.80;1.00;;;;;;5103175;27;20232;-82
2022/11/22 12:26:42;;;;;;;43.78;26.58;;;2.70;1.00;;;;;;5098477;28;20226;-82
2022/11/22 12:29:13;;;;;;;43.85;25.35;;;2.70;1.00;;;;;;5102924;27;20229;-82
2022/11/22 12:31:47;;;;;;;43.40;24.85;;;2.70;1.00;;;;;;5095945;28;20238;-80
2022/11/22 12:34:20;;;;;;;41.75;23.35;;;2.80;1.00;;;;;;5119946;27;20712;-81
2022/11/22 12:36:52;;;;;;;43.00;25.85;;;2.80;1.00;;;;;;5110410;27;21069;-81
2022/11/22 12:39:26;;;;;;;44.40;25.67;;;2.70;1.00;;;;;;5097803;27;20246;-80
2022/11/22 12:41:57;;;;;;;41.85;24.35;;;2.60;1.00;;;;;;5100958;27;20237;-82
2022/11/22 12:44:27;;;;;;;45.85;25.77;;;2.60;1.00;;;;;;5101478;27;20239;-81
2022/11/22 12:46:58;;;;;;;47.15;25.20;;;2.60;1.00;;;;;;5093626;27;20369;-81
2022/11/22 12:49:31;;;;;;;41.72;25.63;;;2.70;1.00;;;;;;5106484;27;21062;-82
2022/11/22 12:52:07;;;;;;;42.90;24.77;;;2.70;1.00;;;;;;5112140;27;20238;-82
2022/11/22 12:54:41;;;;;;;41.25;23.25;;;2.80;1.00;;;;;;5094865;28;20235;-83
2022/11/22 12:57:19;;;;;;;44.30;25.33;;;2.90;1.00;;;;;;5093953;27;20240;-82
2022/11/22 13:00:03;;;;;;;39.58;24.30;;;3.00;1.00;;;;;;5112595;27;20298;-83
2022/11/22 13:02:41;;;;;;;37.30;23.75;;;3.10;1.00;;;;;;5097050;27;20241;-84
2022/11/22 13:05:16;;;;;;;42.42;25.00;;;3.00;1.00;;;;;;5098738;28;20243;-81
2022/11/22 13:07:55;;;;;;;39.80;23.52;;;2.90;1.00;;;;;;5106848;27;20237;-81
2022/11/22 13:10:32;;;;;;;41.00;24.50;;;2.90;1.00;;;;;;5092360;27;20238;-81
2022/11/22 13:13:01;;;;;;;43.20;26.13;;;2.90;1.00;;;;;;5095630;27;20299;-82
2022/11/22 13:15:36;;;;;;;38.38;25.52;;;2.90;1.00;;;;;;5091551;27;20239;-80
2022/11/22 13:18:07;;;;;;;42.55;25.40;;;3.00;1.00;;;;;;5094575;27;20244;-82
2022/11/22 13:20:38;;;;;;;39.17;25.38;;;2.90;1.00;;;;;;5085391;28;21104;-81
2022/11/22 13:23:24;;;;;;;37.40;24.05;;;2.90;1.00;;;;;;5105097;28;20241;-81
2022/11/22 13:26:05;;;;;;;40.90;24.17;;;2.90;1.00;;;;;;5095773;27;20284;-82
2022/11/22 13:28:37;;;;;;;41.65;24.92;;;3.00;1.00;;;;;;5091435;28;20246;-78
2022/11/22 13:31:16;;;;;;;40.85;23.77;;;3.00;1.00;;;;;;5094755;28;20222;-80
2022/11/22 13:33:55;;;;;;;40.95;23.63;;;3.10;1.00;;;;;;5099772;27;20288;-81
2022/11/22 13:36:25;;;;;;;37.88;22.60;;;3.10;1.00;;;;;;5085875;27;20293;-77
2022/11/22 13:38:55;;;;;;;42.00;25.15;;;3.00;1.00;;;;;;5098767;28;20233;-80
2022/11/22 13:41:31;;;;;;;42.65;25.65;;;2.90;1.00;;;;;;5100524;27;20236;-77
2022/11/22 13:44:17;;;;;;;42.38;23.73;;;2.80;1.00;;;;;;5105643;27;20261;-77
2022/11/22 13:47:04;;;;;;;41.47;23.23;;;2.70;1.00;;;;;;5103384;27;20931;-77
2022/11/22 13:49:40;;;;;;;42.45;24.88;;;2.70;1.00;;;;;;5098883;27;20297;-80
2022/11/22 13:52:43;;;;;;;37.08;24.73;;;2.70;1.00;;;;;;5105096;27;20967;-81
2022/11/22 13:55:33;;;;;;;43.72;25.90;;;2.80;1.00;;;;;;5116169;27;20228;-80
2022/11/22 13:58:36;;;;;;;50.13;26.33;;;2.80;1.00;;;;;;5121850;27;20226;-80